Airfield :
LOGIN :

Register | Disclaimer

   EN    FR    IT 

 










Legend :    VFR   Marginal VFR   IFR   Intensive IFR   Very Intensive IFR
Visi :
Ceiling :
>= 8 km
>= 3000ft
5 to 8 km
1000 to 3000 ft
1500m to 5 km
500 to 1000 ft
800 to 1500m
200 to 500 ft
< 800m
< 200 ft
Symbols :   Thunderstorms  Fog  Heavy snow  Heavy precipitations  Wind > 20 kt
SIGMETs :     Misc.  Thunderstorms  Icing  Turbulence  Mountain Waves  Volcanic Ashes







- Airport Elevation : 1036 ft
- IATA code : ERF


EDDE - Erfurt

CURRENT METAR :
  • 241050Z 07009KT 030V120 CAVOK 26/13 Q1023 NOSIG

EXPIRED METARs :
  • 241020Z 05005KT 350V140 CAVOK 24/13 Q1023 NOSIG
  • 240950Z 05007KT 350V090 CAVOK 24/13 Q1023 NOSIG
  • 240920Z 04006KT 350V090 CAVOK 23/12 Q1024 NOSIG
  • 240850Z 03006KT 340V060 CAVOK 21/11 Q1024 NOSIG

TAF TAF EDDE
Valid from the 24 at 06:00 until the 25 at 06:00 UTC


240500Z 2406/2506 VRB03KT CAVOK
BECMG 2407/2409 08008KT
BECMG 2418/2420 VRB03KT
No reported NOTAMs for that airfield.



MET'MAP, your aeronautical weather chart ! - Copyright ORBIFLY December 2007 - Disclaimer

ORBIFLY MET'MAP TEAM :

Programming & Development : Alexandra Zaïnal
Concept & Development : Baudouin d'Aumeries
Co-Development & Prog : Marc-Olivier Méhu
Technical & hardware support : Manuel Goepfert

Contact : metmap@orbifly.com




SOURCES & CREDITS :

   NOAA